Tiempo atmosférico en la estación meteorológica de Antigua, Las Palmas (252 m.)



Fecha
DESCASC
Temp. máxima en grados centígrados (hora)
DESCASC
Temp. mínima en grados centígrados (hora)
DESCASC
Temp. media en grados centígrados
DESCASC
Racha de viento máxima en m/sg (hora)
DESCASC
Velocidad máxima media en intervalos de 10 minutos(hora)
DESCASC
Precipitaciones diarias en mm
DESCASC
Precipitaciones de 00:00 a 06:00 en mm
DESCASC
Precipitaciones de 06:00 a 12:00 en mm
DESCASC
Precipitaciones de 12:00 a 18:00 en mm
DESCASC
Precipitaciones de 18:00 a 24:00 en mm
DESCASC
29-03-2020 20.7 (14:00) 10.8 (06:10) 15.8 8.33 (13:50) 5.83 (18:10) 0 0 0 0 0
28-03-2020 19.8 (12:50) 12.3 (03:30) 16 8.61 (17:50) 5.28 (17:30) 2 1.8 0.2 0 0
27-03-2020 19.9 (14:00) 12.6 (00:20) 16.3 11.67 (14:00) 7.78 (09:00) 0 0 0 0 0
26-03-2020 19.3 (13:00) 10.1 (00:00) 14.7 10.28 (16:10) 7.22 (16:30) 0 0 0 0 0
25-03-2020 20.1 (14:50) 12.6 (00:00) 16.4 10.56 (13:50) 6.94 (16:00) 0 0 0 0 0
24-03-2020 18.8 (13:50) 13.4 (00:00) 16.1 14.44 (18:20) 10.83 (16:50) 0 0 0 0 0
23-03-2020 16.1 (15:40) 11.1 (00:00) 13.6 16.11 (01:40) 11.39 (13:20) 8.2 2.6 4.4 0.4 0.8
22-03-2020 19 (13:20) 12.7 (02:10) 15.8 20.83 (18:20) 10.28 (18:20) 8.8 0 0 0 8.8
21-03-2020 17.7 (14:40) 12.6 (00:00) 15.2 13.89 (11:30) 9.17 (14:40) 0 0 0 0 0
20-03-2020 19.6 (14:20) 13.7 (00:00) 16.7 13.33 (00:50) 9.72 (00:50) 0.4 0 0 0 0.4
19-03-2020 19.4 (14:00) 14.5 (00:00) 16.9 18.33 (00:10) 12.78 (00:10) 0.2 0.2 0 0 0
18-03-2020 17.8 (12:20) 11.7 (00:00) 14.7 17.22 (21:50) 12.5 (23:50) 0.4 0 0.2 0 0.2
17-03-2020 18.3 (14:20) 12.4 (00:00) 15.3 14.72 (17:10) 10.28 (16:00) 0 0 0 0 0
16-03-2020 20 (14:50) 14.1 (00:00) 17.1 16.67 (14:40) 10.28 (14:40) 0 0 0 0 0
15-03-2020 19.6 (13:50) 12.9 (00:00) 16.3 12.78 (14:20) 8.89 (16:10) 0.2 0 0.2 0 0
14-03-2020 20.7 (13:00) 13.1 (00:00) 16.9 11.39 (15:10) 8.61 (15:10) 0 0 0 0 0
13-03-2020 20.5 (12:20) 13.3 (07:40) 16.9 9.17 (19:00) 7.22 (18:30) 0 0 0 0 0
12-03-2020 27.8 (15:00) 13.3 (00:00) 20.5 7.22 (15:00) 4.72 (16:00) 0 0 0 0 0
11-03-2020 29.2 (16:40) 12 (00:00) 20.6 8.06 (15:50) 5 (16:20) 0 0 0 0 0
10-03-2020 25.4 (14:10) 13.2 (00:00) 19.3 9.17 (15:20) 5 (15:00) 0 0 0 0 0
09-03-2020 25.9 (14:30) 15 (00:00) 20.4 8.61 (22:10) 5 (22:10) 0 0 0 0 0
08-03-2020 25.5 (17:00) 14.5 (00:00) 20 10.28 (10:40) 7.22 (10:40) 0 0 0 0 0
07-03-2020 23.3 (15:20) 12.1 (00:00) 17.7 11.94 (16:30) 9.17 (16:40) 0 0 0 0 0
06-03-2020 19.9 (14:20) 14 (00:00) 16.9 13.89 (11:40) 9.17 (11:20) 0 0 0 0 0
05-03-2020 21.2 (12:40) 12.8 (00:00) 17 10.83 (22:10) 7.78 (07:40) 0 0 0 0 0
04-03-2020 25.7 (11:40) 14.8 (00:00) 20.3 9.17 (00:30) 6.11 (00:10) 0 0 0 0 0
03-03-2020 22.9 (13:40) 12.9 (00:00) 17.9 10 (23:50) 6.94 (13:50) 0 0 0 0 0
02-03-2020 21.6 (15:00) 14.9 (00:00) 18.3 12.78 (12:20) 9.44 (15:40) 0 0 0 0 0
01-03-2020 22 (13:10) 12.1 (00:00) 17.1 11.67 (08:00) 8.89 (08:00) 0 0 0 0 0
29-02-2020 21.5 (14:40) 11.4 (00:00) 16.4 10.56 (02:10) 7.22 (02:30) 0 0 0 0 0

Gráficas

Temp. máximas Temp. mínimas Temp. medias Precipitaciones Rachas de viento máximas Velocidades máximas media en intervalos de 10 minutos

Datos horarios

Fecha y hora oficial Temperatura (ºC) Velocidad del viento (km/h) Dirección del viento Racha (km/h) Dirección de racha Precipitación (mm) Presión (hPa) Tendencia (hPa) Humedad (%)
2020-03-29 23:00:00 14.1 5 Noroeste 9 Noroeste 0 -- -- 81
2020-03-29 22:00:00 15 6 Norte 16 Noroeste 0 -- -- 77
2020-03-29 21:00:00 15.5 15 Noroeste 21 Noroeste 0 -- -- 75
2020-03-29 20:00:00 16.3 14 Norte 24 Norte 0 -- -- 71
2020-03-29 19:00:00 18.1 19 Norte 26 Norte 0 -- -- 61
2020-03-29 18:00:00 19.7 18 Norte 26 Norte 0 -- -- 54
2020-03-29 17:00:00 18.9 15 Norte 24 Noroeste 0 -- -- 61
2020-03-29 16:00:00 19.3 14 Noroeste 23 Noroeste 0 -- -- 58
2020-03-29 15:00:00 19.1 13 Noroeste 23 Noroeste 0 -- -- 53
2020-03-29 14:00:00 20.7 15 Norte 30 Norte 0 -- -- 50
2020-03-29 13:00:00 19.2 12 Norte 23 Noroeste 0 -- -- 56
2020-03-29 12:00:00 18.6 12 Norte 22 Norte 0 -- -- 53
2020-03-29 11:00:00 17.3 9 Norte 16 Norte 0 -- -- 67
2020-03-29 10:00:00 16.2 3 Nordeste 8 Este 0 -- -- 80
2020-03-29 09:00:00 14 2 Noroeste 8 Noroeste 0 -- -- 95
2020-03-29 08:00:00 11 6 Noroeste 8 Oeste 0 -- -- 96
2020-03-29 07:00:00 11.1 3 Norte 6 Noroeste 0 -- -- 95
2020-03-29 06:00:00 11 4 Noroeste 5 Noroeste 0 -- -- 94
2020-03-29 05:00:00 11.5 3 Noroeste 6 Noroeste 0 -- -- 93
2020-03-29 04:00:00 12.5 8 Noroeste 13 Noroeste 0 -- -- 92
2020-03-29 00:00:00 13.7 10 Noroeste 13 Noroeste 0 -- -- 90
2020-03-28 23:00:00 14.3 9 Noroeste 13 Noroeste 0 -- -- 88
2020-03-28 22:00:00 14.6 6 Norte 18 Norte 0 -- -- 87
2020-03-28 21:00:00 15.2 14 Norte 24 Noroeste 0 -- -- 84
2020-03-28 20:00:00 15.9 19 Noroeste 26 Noroeste 0 -- -- 82
2020-03-28 19:00:00 16.9 10 Norte 22 Norte 0 -- -- 78
2020-03-28 18:00:00 18.4 10 Norte 31 Noroeste 0 -- -- 73
2020-03-28 17:00:00 17.8 10 Norte 19 Norte 0 -- -- 73
2020-03-28 16:00:00 17.1 11 Nordeste 16 Nordeste 0 -- -- 77
2020-03-28 15:00:00 -- 11 Este 23 Este 0 -- -- --
2020-03-28 14:00:00 18.2 10 Este 28 Noroeste 0 -- -- 68
2020-03-28 13:00:00 19.6 17 Noroeste 27 Norte 0 -- -- 63
2020-03-28 12:00:00 18.9 16 Norte 27 Noroeste 0 -- -- 65
2020-03-28 11:00:00 18.3 14 Noroeste 21 Norte 0 -- -- 68
2020-03-28 10:00:00 16.9 14 Norte 20 Norte 0 -- -- 74
2020-03-28 09:00:00 16 14 Norte 18 Noroeste 0 -- -- 83
2020-03-28 08:00:00 14 10 Noroeste 15 Noroeste 0 -- -- 90
2020-03-28 07:00:00 13.3 2 Oeste 16 Noroeste 0.2 -- -- 91
2020-03-28 06:00:00 13.5 9 Oeste 16 Oeste 0.4 -- -- 91
2020-03-28 05:00:00 12.9 5 Norte 18 Noroeste 1.4 -- -- 92
2020-03-28 04:00:00 12.9 4 Norte 8 Norte 0 -- -- 92
2020-03-28 03:00:00 12.6 0 Calma 5 Noroeste 0 -- -- 89
2020-03-28 02:00:00 13.1 4 Oeste 9 Oeste 0 -- -- 89
2020-03-28 01:00:00 13.9 4 Sudoeste 9 Oeste 0 -- -- 87
2020-03-28 00:00:00 13.8 3 Sudoeste 10 Noroeste 0 -- -- 87
2020-03-27 23:00:00 13.7 8 Noroeste 12 Noroeste 0 -- -- 86
2020-03-27 22:00:00 14.5 9 Noroeste 14 Noroeste 0 -- -- 87
2020-03-27 21:00:00 15.1 9 Norte 15 Noroeste 0 -- -- 83
2020-03-27 20:00:00 15.4 14 Noroeste 23 Noroeste 0 -- -- 82
2020-03-27 19:00:00 16.2 17 Noroeste 28 Noroeste 0 -- -- 75
2020-03-27 18:00:00 17.8 20 Noroeste 29 Noroeste 0 -- -- 64
2020-03-27 17:00:00 18.6 19 Noroeste 31 Noroeste 0 -- -- 59
2020-03-27 16:00:00 19 23 Noroeste 32 Noroeste 0 -- -- 63
2020-03-27 15:00:00 19 23 Noroeste 34 Noroeste 0 -- -- 62
2020-03-27 14:00:00 19.9 21 Noroeste 42 Noroeste 0 -- -- 57
2020-03-27 13:00:00 19.2 23 Noroeste 34 Norte 0 -- -- 64
2020-03-27 12:00:00 18.6 23 Noroeste 36 Noroeste 0 -- -- 62
2020-03-27 11:00:00 18.5 21 Noroeste 31 Noroeste 0 -- -- 61
2020-03-27 10:00:00 17.4 20 Noroeste 32 Noroeste 0 -- -- 67
2020-03-27 09:00:00 16.3 28 Noroeste 36 Noroeste 0 -- -- 72
2020-03-27 08:00:00 15.3 14 Noroeste 24 Noroeste 0 -- -- 80
2020-03-27 07:00:00 13.9 18 Noroeste 27 Noroeste 0 -- -- 84
2020-03-27 06:00:00 14.2 15 Oeste 21 Oeste 0 -- -- 85
2020-03-27 05:00:00 13.9 14 Noroeste 25 Oeste 0 -- -- 86
2020-03-27 04:00:00 14 15 Oeste 20 Oeste 0 -- -- 87
2020-03-27 03:00:00 13.7 8 Noroeste 13 Noroeste 0 -- -- 88
2020-03-27 02:00:00 13.8 10 Noroeste 13 Noroeste 0 -- -- 87
2020-03-27 01:00:00 13.3 9 Noroeste 11 Noroeste 0 -- -- 87
2020-03-27 00:00:00 13.2 4 Noroeste 10 Noroeste 0 -- -- 85
2020-03-26 23:00:00 14.3 5 Noroeste 19 Noroeste 0 -- -- 82
2020-03-26 22:00:00 14.5 12 Noroeste 22 Noroeste 0 -- -- 80
2020-03-26 21:00:00 14.7 16 Noroeste 28 Noroeste 0 -- -- 78
2020-03-26 20:00:00 15.1 22 Noroeste 32 Noroeste 0 -- -- 75
2020-03-26 19:00:00 15.5 22 Noroeste 30 Noroeste 0 -- -- 71
2020-03-26 18:00:00 16.9 21 Noroeste 35 Noroeste 0 -- -- 64
2020-03-26 17:00:00 17.8 23 Noroeste 37 Noroeste 0 -- -- 60
2020-03-26 16:00:00 18.4 23 Noroeste 34 Noroeste 0 -- -- 53
2020-03-26 15:00:00 18.8 22 Noroeste 34 Noroeste 0 -- -- 51
2020-03-26 14:00:00 17.8 16 Noroeste 31 Noroeste 0 -- -- 57
2020-03-26 13:00:00 19.3 21 Noroeste 33 Noroeste 0 -- -- 52
2020-03-26 12:00:00 18.8 19 Noroeste 30 Noroeste 0 -- -- 59
2020-03-26 11:00:00 17.7 18 Norte 27 Norte 0 -- -- 63
2020-03-26 10:00:00 16.7 19 Norte 28 Norte 0 -- -- 68
2020-03-26 09:00:00 15.7 17 Norte 23 Norte 0 -- -- 77
2020-03-26 08:00:00 14 10 Norte 16 Noroeste 0 -- -- 87
2020-03-26 07:00:00 11.3 13 Noroeste 16 Noroeste 0 -- -- 89
2020-03-26 06:00:00 10.2 9 Noroeste 10 Noroeste 0 -- -- 87
2020-03-26 05:00:00 10.8 3 Noroeste 9 Oeste 0 -- -- 85
2020-03-26 04:00:00 11.1 3 Noroeste 10 Noroeste 0 -- -- 88
2020-03-26 03:00:00 11.4 9 Noroeste 11 Noroeste 0 -- -- 88
2020-03-26 02:00:00 12.2 6 Noroeste 12 Noroeste 0 -- -- 85
2020-03-26 01:00:00 12.8 8 Norte 16 Noroeste 0 -- -- 84
2020-03-26 00:00:00 13.5 10 Norte 18 Norte 0 -- -- 83
2020-03-25 23:00:00 13.9 14 Noroeste 20 Noroeste 0 -- -- 83
2020-03-25 22:00:00 14.3 14 Noroeste 20 Noroeste 0 -- -- 82
2020-03-25 21:00:00 14.8 14 Norte 25 Noroeste 0 -- -- 80
2020-03-25 20:00:00 15.3 18 Norte 26 Norte 0 -- -- 76
2020-03-25 19:00:00 16 19 Norte 28 Norte 0 -- -- 71
2020-03-25 18:00:00 17.2 19 Norte 32 Noroeste 0 -- -- 63
2020-03-25 17:00:00 17.5 22 Noroeste 33 Noroeste 0 -- -- 64
2020-03-25 16:00:00 17.7 25 Noroeste 33 Noroeste 0 -- -- 57
2020-03-25 15:00:00 19.7 22 Noroeste 31 Noroeste 0 -- -- 47
2020-03-25 14:00:00 19.5 20 Norte 38 Noroeste 0 -- -- 52
2020-03-25 13:00:00 19.4 17 Norte 35 Noroeste 0 -- -- 47
2020-03-25 12:00:00 19.2 17 Norte 30 Noroeste 0 -- -- 56
2020-03-25 11:00:00 18.1 20 Noroeste 34 Norte 0 -- -- 62
2020-03-25 10:00:00 17 14 Norte 22 Norte 0 -- -- 65
2020-03-25 09:00:00 15.9 8 Norte 15 Nordeste 0 -- -- 73
2020-03-25 08:00:00 14.3 6 Noroeste 12 Noroeste 0 -- -- 84
2020-03-25 07:00:00 12.8 9 Noroeste 13 Noroeste 0 -- -- 89
2020-03-25 06:00:00 12.7 8 Noroeste 14 Noroeste 0 -- -- 90
2020-03-25 05:00:00 13.4 11 Noroeste 18 Noroeste 0 -- -- 90
2020-03-25 04:00:00 12.6 8 Noroeste 18 Norte 0 -- -- 90
2020-03-25 03:00:00 13.3 7 Norte 16 Noroeste 0 -- -- 89
2020-03-25 02:00:00 13.3 6 Norte 15 Norte 0 -- -- 88
2020-03-25 01:00:00 14.5 11 Norte 19 Noroeste 0 -- -- 84
2020-03-25 00:00:00 14.3 11 Norte 22 Noroeste 0 -- -- 83
2020-03-24 23:00:00 14.4 12 Noroeste 26 Noroeste 0 -- -- 83
2020-03-24 22:00:00 14.7 16 Noroeste 33 Noroeste 0 -- -- 78
2020-03-24 21:00:00 15.4 22 Noroeste 35 Noroeste 0 -- -- 80
2020-03-24 20:00:00 15.5 26 Noroeste 42 Noroeste 0 -- -- 77
2020-03-24 19:00:00 15.9 28 Noroeste 52 Noroeste 0 -- -- 76
2020-03-24 18:00:00 16.6 32 Noroeste 47 Noroeste 0 -- -- 73
2020-03-24 17:00:00 17.7 34 Noroeste 50 Noroeste 0 -- -- 69
2020-03-24 16:00:00 18.4 35 Noroeste 49 Norte 0 -- -- 64
2020-03-24 15:00:00 18.6 32 Noroeste 48 Noroeste 0 -- -- 65
2020-03-24 14:00:00 18.7 34 Noroeste 50 Noroeste 0 -- -- 66
2020-03-24 13:00:00 18.3 34 Noroeste 52 Noroeste 0 -- -- 67
2020-03-24 12:00:00 17.9 35 Noroeste 49 Noroeste 0 -- -- 68
2020-03-24 11:00:00 17.2 32 Noroeste 49 Noroeste 0 -- -- 77
2020-03-24 10:00:00 16.3 28 Noroeste 41 Norte 0 -- -- 81
2020-03-24 09:00:00 14.8 24 Norte 39 Noroeste 0 -- -- 88
2020-03-24 08:00:00 14.7 27 Noroeste 45 Noroeste 0 -- -- 83
2020-03-24 07:00:00 14.2 21 Noroeste 36 Noroeste 0 -- -- 84
2020-03-24 06:00:00 14 23 Noroeste 33 Norte 0 -- -- 82
2020-03-24 05:00:00 13.7 21 Noroeste 35 Noroeste 0 -- -- 81
2020-03-24 04:00:00 14 26 Noroeste 39 Noroeste 0 -- -- 81
2020-03-24 03:00:00 13.7 22 Norte 35 Norte 0 -- -- 82
2020-03-24 02:00:00 13.9 22 Noroeste 36 Noroeste 0 -- -- 88
2020-03-24 01:00:00 13.9 28 Noroeste 44 Norte 0 -- -- 87
2020-03-24 00:00:00 13.4 25 Noroeste 41 Noroeste 0.6 -- -- 88
2020-03-23 23:00:00 14.1 24 Norte 41 Norte 0.2 -- -- 83
2020-03-23 22:00:00 14.5 34 Noroeste 50 Noroeste 0 -- -- 76
2020-03-23 21:00:00 14.6 29 Noroeste 46 Norte 0 -- -- 83
2020-03-23 20:00:00 14.8 27 Norte 43 Noroeste 0 -- -- 83
2020-03-23 19:00:00 14.9 30 Noroeste 45 Noroeste 0 -- -- 83
2020-03-23 18:00:00 14.8 35 Noroeste 50 Noroeste 0 -- -- 80
2020-03-23 17:00:00 16 32 Norte 51 Noroeste 0 -- -- 76
2020-03-23 16:00:00 15.8 37 Norte 49 Noroeste 0 -- -- 74
2020-03-23 15:00:00 15.7 34 Norte 47 Norte 0 -- -- 74
2020-03-23 14:00:00 15.1 35 Norte 57 Norte 0 -- -- 78
2020-03-23 13:00:00 15.4 36 Norte 51 Norte 0.4 -- -- 81
2020-03-23 12:00:00 13 24 Norte 44 Norte 2.2 -- -- 88
2020-03-23 11:00:00 15.2 26 Norte 38 Noroeste 0 -- -- 77
2020-03-23 10:00:00 13.3 19 Norte 26 Norte 0 -- -- 86
2020-03-23 09:00:00 12.7 10 Noroeste 20 Noroeste 0 -- -- 85
2020-03-23 08:00:00 11.3 9 Norte 14 Norte 0 -- -- 89
2020-03-23 07:00:00 11.7 5 Noroeste 29 Noroeste 2.2 -- -- 84
2020-03-23 06:00:00 12.3 18 Oeste 32 Noroeste 1.2 -- -- 80
2020-03-23 05:00:00 13 21 Oeste 41 Noroeste 0 -- -- 76
2020-03-23 04:00:00 13.5 21 Noroeste 45 Oeste 0 -- -- 79
2020-03-23 03:00:00 13.3 30 Oeste 50 Oeste 0 -- -- 79
2020-03-23 02:00:00 13.2 33 Oeste 58 Oeste 0 -- -- 83
2020-03-23 01:00:00 13 23 Noroeste 53 Oeste 1.4 -- -- 86
2020-03-23 00:00:00 14.2 23 Oeste 40 Oeste 0.4 -- -- 85
2020-03-22 23:00:00 14.3 27 Oeste 48 Oeste 0 -- -- 84
2020-03-22 22:00:00 14.1 31 Oeste 50 Oeste 0.2 -- -- 88
2020-03-22 21:00:00 13.4 21 Oeste 41 Noroeste 2.6 -- -- 90
2020-03-22 20:00:00 13.7 23 Oeste 41 Oeste 1.6 -- -- 89
2020-03-22 19:00:00 13.7 24 Oeste 75 Oeste 4 -- -- 89
2020-03-22 18:00:00 16.4 24 Oeste 39 Sudoeste 0 -- -- 69
2020-03-22 17:00:00 17 22 Oeste 36 Noroeste 0 -- -- 66
2020-03-22 16:00:00 17.5 25 Oeste 42 Oeste 0 -- -- 60
2020-03-22 15:00:00 17.7 27 Oeste 39 Oeste 0 -- -- 62
2020-03-22 14:00:00 18.7 23 Oeste 40 Oeste 0 -- -- 54
2020-03-22 13:00:00 18.3 17 Noroeste 33 Noroeste 0 -- -- 56
2020-03-22 12:00:00 17.6 18 Noroeste 35 Norte 0 -- -- 58
2020-03-22 11:00:00 17.3 20 Noroeste 31 Norte 0 -- -- 56
2020-03-22 10:00:00 16.4 18 Noroeste 31 Noroeste 0 -- -- 64
2020-03-22 09:00:00 15.2 20 Noroeste 38 Noroeste 0 -- -- 69
2020-03-22 08:00:00 14.4 21 Noroeste 30 Noroeste 0 -- -- 72
2020-03-22 07:00:00 13.8 16 Noroeste 25 Noroeste 0 -- -- 75
2020-03-22 06:00:00 13.6 17 Noroeste 29 Norte 0 -- -- 76
2020-03-22 05:00:00 13.3 16 Noroeste 28 Noroeste 0 -- -- 71
2020-03-22 04:00:00 13.7 19 Noroeste 33 Norte 0 -- -- 70
2020-03-22 03:00:00 13.4 16 Norte 25 Noroeste 0 -- -- 71
2020-03-22 02:00:00 12.8 13 Noroeste 28 Norte 0 -- -- 72
2020-03-22 01:00:00 13.7 17 Norte 37 Norte 0 -- -- 68
2020-03-22 00:00:00 14.4 22 Norte 36 Noroeste 0 -- -- 68
2020-03-21 23:00:00 14.2 22 Norte 33 Norte 0 -- -- 66
2020-03-21 22:00:00 14.5 24 Norte 36 Norte 0 -- -- 66
2020-03-21 21:00:00 14.6 27 Norte 41 Norte 0 -- -- 66
2020-03-21 20:00:00 14.3 22 Norte 40 Norte 0 -- -- 68
2020-03-21 19:00:00 15.1 30 Norte 42 Norte 0 -- -- 67
2020-03-21 18:00:00 16.1 30 Noroeste 42 Noroeste 0 -- -- 57
2020-03-21 17:00:00 16.5 30 Norte 46 Noroeste 0 -- -- 52
2020-03-21 16:00:00 17.3 32 Noroeste 47 Noroeste 0 -- -- 49
2020-03-21 15:00:00 17.6 33 Noroeste 48 Norte 0 -- -- 48
2020-03-21 14:00:00 17.1 30 Norte 42 Norte 0 -- -- 54
2020-03-21 13:00:00 16.1 26 Norte 42 Norte 0 -- -- 61
2020-03-21 12:00:00 17.3 23 Norte 50 Norte 0 -- -- 51
2020-03-21 11:00:00 16.4 30 Norte 43 Norte 0 -- -- 53
2020-03-21 10:00:00 15 26 Norte 40 Norte 0 -- -- 63
2020-03-21 09:00:00 14.8 16 Norte 27 Norte 0 -- -- 62
2020-03-21 08:00:00 14 15 Norte 27 Norte 0 -- -- 63
2020-03-21 07:00:00 13.7 11 Norte 18 Norte 0 -- -- 69
2020-03-21 06:00:00 13.3 8 Norte 26 Norte 0 -- -- 67
2020-03-21 05:00:00 13.4 15 Norte 29 Norte 0 -- -- 68
2020-03-21 04:00:00 13.6 19 Norte 27 Norte 0 -- -- 72
2020-03-21 03:00:00 13.3 14 Norte 32 Norte 0 -- -- 86
2020-03-21 02:00:00 13 12 Norte 26 Norte 0 -- -- 88
2020-03-21 01:00:00 13.8 17 Norte 26 Norte 0 -- -- 89
2020-03-21 00:00:00 13.8 13 Norte 21 Norte 0 -- -- 87
2020-03-20 23:00:00 13.7 13 Noroeste 25 Noroeste 0 -- -- 89
2020-03-20 22:00:00 14.1 17 Noroeste 28 Norte 0 -- -- 91
2020-03-20 21:00:00 14.3 21 Norte 41 Norte 0.4 -- -- 92
2020-03-20 20:00:00 15.1 23 Norte 32 Noroeste 0 -- -- 85
2020-03-20 19:00:00 15.8 19 Noroeste 38 Noroeste 0 -- -- 75
2020-03-20 18:00:00 16.5 28 Noroeste 44 Noroeste 0 -- -- 69
2020-03-20 17:00:00 17.6 32 Noroeste 44 Noroeste 0 -- -- 64
2020-03-20 16:00:00 17.1 28 Norte 41 Noroeste 0 -- -- 67
2020-03-20 15:00:00 18.8 28 Norte 43 Noroeste 0 -- -- 61
2020-03-20 14:00:00 19.2 31 Noroeste 47 Norte 0 -- -- 61
2020-03-20 13:00:00 19.4 29 Norte 43 Noroeste 0 -- -- 62
2020-03-20 12:00:00 18.8 31 Norte 44 Norte 0 -- -- 68
2020-03-20 11:00:00 17.6 31 Norte 44 Noroeste 0 -- -- 73
2020-03-20 10:00:00 16.5 31 Norte 42 Noroeste 0 -- -- 79
2020-03-20 09:00:00 16.2 28 Norte 42 Norte 0 -- -- 84
2020-03-20 08:00:00 15.7 23 Norte 41 Noroeste 0 -- -- 88
2020-03-20 07:00:00 15.6 30 Noroeste 46 Norte 0 -- -- 88
2020-03-20 06:00:00 15.7 26 Norte 46 Noroeste 0 -- -- 89
2020-03-20 05:00:00 15.6 28 Norte 42 Norte 0 -- -- 91
2020-03-20 04:00:00 15.4 27 Norte 41 Noroeste 0 -- -- 92
2020-03-20 03:00:00 15.7 22 Norte 39 Norte 0 -- -- 89
2020-03-20 02:00:00 15.9 24 Norte 46 Noroeste 0 -- -- 88
2020-03-20 01:00:00 16 33 Noroeste 48 Noroeste 0 -- -- 88
2020-03-20 00:00:00 16.1 32 Noroeste 51 Noroeste 0 -- -- 86
2020-03-19 23:00:00 16.2 32 Noroeste 51 Noroeste 0 -- -- 85
2020-03-19 22:00:00 16.2 37 Noroeste 50 Noroeste 0 -- -- 84
2020-03-19 21:00:00 16.2 32 Noroeste 42 Noroeste 0 -- -- 86
2020-03-19 20:00:00 16.2 34 Noroeste 49 Noroeste 0 -- -- 85
2020-03-19 19:00:00 16.5 33 Noroeste 48 Norte 0 -- -- 83
2020-03-19 18:00:00 17 33 Noroeste 54 Norte 0 -- -- 77
2020-03-19 17:00:00 18.2 40 Noroeste 57 Noroeste 0 -- -- 73
2020-03-19 16:00:00 18.9 39 Noroeste 55 Noroeste 0 -- -- 67
2020-03-19 15:00:00 19.1 32 Noroeste 49 Norte 0 -- -- 59
2020-03-19 14:00:00 19.4 32 Noroeste 52 Noroeste 0 -- -- 59
2020-03-19 13:00:00 18.8 39 Norte 49 Noroeste 0 -- -- 60
2020-03-19 12:00:00 18.5 35 Norte 49 Noroeste 0 -- -- 57
2020-03-19 11:00:00 18.1 28 Norte 46 Noroeste 0 -- -- 63
2020-03-19 10:00:00 16.9 27 Norte 41 Norte 0 -- -- 69
2020-03-19 09:00:00 16.1 27 Norte 36 Norte 0 -- -- 80
2020-03-19 08:00:00 15.1 22 Norte 44 Noroeste 0 -- -- 89
2020-03-19 07:00:00 14.9 31 Noroeste 62 Noroeste 0 -- -- 89
2020-03-19 06:00:00 15.3 36 Noroeste 58 Noroeste 0.2 -- -- 88
2020-03-19 05:00:00 15 31 Noroeste 53 Noroeste 0 -- -- 82
2020-03-19 04:00:00 15.2 38 Noroeste 51 Noroeste 0 -- -- 78
2020-03-19 03:00:00 14.6 35 Noroeste 50 Noroeste 0 -- -- 75
2020-03-19 02:00:00 14.5 33 Noroeste 54 Noroeste 0 -- -- 73
2020-03-19 01:00:00 14.7 36 Noroeste 66 Noroeste 0 -- -- 72
2020-03-19 00:00:00 14.7 45 Noroeste 61 Noroeste 0 -- -- 79
2020-03-18 23:00:00 14.4 36 Noroeste 57 Noroeste 0 -- -- 82
2020-03-18 22:00:00 14.2 39 Noroeste 62 Noroeste 0.2 -- -- 92
2020-03-18 21:00:00 15.4 39 Noroeste 57 Noroeste 0 -- -- 73
2020-03-18 20:00:00 15.2 39 Noroeste 59 Noroeste 0 -- -- 69
2020-03-18 19:00:00 15.4 40 Noroeste 57 Noroeste 0 -- -- 74
2020-03-18 18:00:00 15.6 39 Noroeste 53 Noroeste 0 -- -- 73
2020-03-18 17:00:00 16.6 41 Noroeste 56 Noroeste 0 -- -- 64
2020-03-18 16:00:00 17.4 37 Noroeste 50 Noroeste 0 -- -- 57
2020-03-18 15:00:00 17 33 Noroeste 48 Noroeste 0 -- -- 65
2020-03-18 14:00:00 15.7 28 Noroeste 51 Noroeste 0 -- -- 78
2020-03-18 13:00:00 17.4 35 Noroeste 50 Noroeste 0 -- -- 67
2020-03-18 12:00:00 16.6 35 Noroeste 49 Noroeste 0 -- -- 67
2020-03-18 11:00:00 17.1 32 Noroeste 44 Noroeste 0 -- -- 62
2020-03-18 10:00:00 16.3 30 Norte 44 Norte 0 -- -- 62
2020-03-18 09:00:00 15.5 27 Norte 39 Norte 0 -- -- 76
2020-03-18 08:00:00 13.5 25 Noroeste 49 Norte 0.2 -- -- 83
2020-03-18 07:00:00 13.8 23 Noroeste 36 Noroeste 0 -- -- 81
2020-03-18 06:00:00 12 9 Noroeste 17 Norte 0 -- -- 91
2020-03-18 05:00:00 12.2 17 Norte 32 Norte 0 -- -- 88
2020-03-18 04:00:00 12.7 21 Norte 37 Noroeste 0 -- -- 84
2020-03-18 03:00:00 13.9 25 Noroeste 37 Norte 0 -- -- 70
2020-03-18 02:00:00 13.7 24 Norte 38 Norte 0 -- -- 70
2020-03-18 01:00:00 13.2 22 Norte 33 Norte 0 -- -- 65
2020-03-18 00:00:00 12.9 19 Norte 46 Norte 0 -- -- 82
2020-03-17 23:00:00 13.7 18 Norte 39 Norte 0 -- -- 75
2020-03-17 22:00:00 14.3 29 Norte 42 Norte 0 -- -- 70
2020-03-17 21:00:00 14.2 28 Norte 43 Norte 0 -- -- 73
2020-03-17 20:00:00 13.7 22 Norte 51 Norte 0 -- -- 76
2020-03-17 19:00:00 14.8 29 Norte 48 Norte 0 -- -- 72
2020-03-17 18:00:00 15.5 28 Norte 53 Norte 0 -- -- 68
2020-03-17 17:00:00 16.7 32 Norte 49 Noroeste 0 -- -- 58
2020-03-17 16:00:00 16.9 37 Norte 53 Norte 0 -- -- 64
2020-03-17 15:00:00 17.2 32 Norte 46 Norte 0 -- -- 59
2020-03-17 14:00:00 18.2 30 Norte 49 Norte 0 -- -- 55
2020-03-17 13:00:00 16.8 26 Norte 46 Norte 0 -- -- 62
2020-03-17 12:00:00 16.5 28 Norte 45 Norte 0 -- -- 64
2020-03-17 11:00:00 15.3 28 Norte 45 Norte 0 -- -- 67
2020-03-17 10:00:00 15.6 19 Norte 34 Norte 0 -- -- 63
2020-03-17 09:00:00 14.5 25 Norte 40 Norte 0 -- -- 65
2020-03-17 08:00:00 13.6 21 Norte 41 Norte 0 -- -- 73
2020-03-17 07:00:00 13.6 15 Norte 34 Norte 0 -- -- 70
2020-03-17 06:00:00 14 20 Norte 37 Norte 0 -- -- 67
2020-03-17 05:00:00 14.1 23 Norte 40 Norte 0 -- -- 65
2020-03-17 04:00:00 13.7 18 Norte 40 Norte 0 -- -- 71
2020-03-17 03:00:00 14.1 19 Norte 35 Norte 0 -- -- 65
2020-03-17 02:00:00 14.2 26 Nordeste 39 Nordeste 0 -- -- 67
2020-03-17 01:00:00 14.5 23 Norte 42 Norte 0 -- -- 64
2020-03-17 00:00:00 14.6 25 Norte 40 Norte 0 -- -- 64
2020-03-16 23:00:00 14.7 22 Norte 47 Norte 0 -- -- 60
2020-03-16 22:00:00 15.1 32 Norte 48 Norte 0 -- -- 62
2020-03-16 21:00:00 15.3 32 Norte 45 Norte 0 -- -- 74
2020-03-16 20:00:00 15.5 26 Norte 46 Norte 0 -- -- 74
2020-03-16 19:00:00 15.6 32 Norte 48 Norte 0 -- -- 74
2020-03-16 18:00:00 16.6 32 Norte 50 Norte 0 -- -- 72
2020-03-16 17:00:00 18.1 35 Norte 50 Norte 0 -- -- 62
2020-03-16 16:00:00 18.8 35 Norte 49 Norte 0 -- -- 62
2020-03-16 15:00:00 19.6 33 Norte 60 Norte 0 -- -- 59
2020-03-16 14:00:00 19.5 35 Norte 48 Norte 0 -- -- 58
2020-03-16 13:00:00 19.5 29 Norte 49 Noroeste 0 -- -- 53
2020-03-16 12:00:00 18.8 34 Norte 50 Norte 0 -- -- 54
2020-03-16 11:00:00 17.9 35 Norte 48 Norte 0 -- -- 60
2020-03-16 10:00:00 16.8 34 Norte 48 Norte 0 -- -- 67
2020-03-16 09:00:00 16.1 29 Norte 47 Norte 0 -- -- 77
2020-03-16 08:00:00 15.5 23 Norte 38 Norte 0 -- -- 78
2020-03-16 07:00:00 14.9 24 Norte 37 Norte 0 -- -- 80
2020-03-16 06:00:00 14.8 22 Norte 36 Norte 0 -- -- 81
2020-03-16 05:00:00 14.6 23 Norte 35 Norte 0 -- -- 81
2020-03-16 04:00:00 14.6 17 Norte 27 Norte 0 -- -- 84
2020-03-16 03:00:00 14.4 16 Norte 31 Norte 0 -- -- 85
2020-03-16 02:00:00 14.8 21 Norte 31 Norte 0 -- -- 82
2020-03-16 01:00:00 15.4 23 Norte 31 Norte 0 -- -- 81
2020-03-16 00:00:00 15 18 Norte 30 Noroeste 0 -- -- 84
2020-03-15 23:00:00 14.8 18 Norte 30 Norte 0 -- -- 85
2020-03-15 22:00:00 14.9 21 Norte 38 Norte 0 -- -- 84
2020-03-15 21:00:00 15.9 24 Norte 44 Noroeste 0 -- -- 80
2020-03-15 20:00:00 15.7 26 Norte 39 Norte 0 -- -- 75
2020-03-15 19:00:00 15.8 26 Norte 40 Norte 0 -- -- 76
2020-03-15 18:00:00 16.5 30 Norte 42 Norte 0 -- -- 65
2020-03-15 17:00:00 17.7 28 Norte 44 Noroeste 0 -- -- 60
2020-03-15 16:00:00 19.1 27 Norte 42 Norte 0 -- -- 51
2020-03-15 15:00:00 18.4 29 Norte 46 Norte 0 -- -- 61
2020-03-15 14:00:00 19.5 29 Norte 45 Noroeste 0 -- -- 56
2020-03-15 13:00:00 18.7 28 Norte 43 Norte 0 -- -- 59
2020-03-15 12:00:00 19 25 Noroeste 41 Noroeste 0 -- -- 53
2020-03-15 11:00:00 17.7 26 Norte 38 Noroeste 0 -- -- 63
2020-03-15 10:00:00 16.8 27 Noroeste 37 Noroeste 0 -- -- 74
2020-03-15 09:00:00 16.1 19 Norte 30 Norte 0.2 -- -- 75
2020-03-15 08:00:00 14 12 Noroeste 16 Norte 0 -- -- 90
2020-03-15 07:00:00 13.3 12 Norte 17 Norte 0 -- -- 91
2020-03-15 06:00:00 13.6 13 Noroeste 20 Norte 0 -- -- 90
2020-03-15 05:00:00 13.4 10 Noroeste 15 Noroeste 0 -- -- 87
2020-03-15 04:00:00 12.9 12 Noroeste 15 Noroeste 0 -- -- 87
2020-03-15 03:00:00 13.2 12 Noroeste 15 Noroeste 0 -- -- 86
2020-03-15 02:00:00 13.6 11 Noroeste 20 Norte 0 -- -- 84
2020-03-15 01:00:00 14.6 14 Norte 24 Norte 0 -- -- 81
2020-03-15 00:00:00 14.9 14 Norte 30 Norte 0 -- -- 81
2020-03-14 23:00:00 15 17 Norte 25 Norte 0 -- -- 80
2020-03-14 22:00:00 15 17 Norte 26 Norte 0 -- -- 78
2020-03-14 21:00:00 15.3 16 Norte 28 Norte 0 -- -- 77
2020-03-14 20:00:00 15.5 17 Norte 32 Noroeste 0 -- -- 76
2020-03-14 19:00:00 16.1 22 Noroeste 37 Noroeste 0 -- -- 76
2020-03-14 18:00:00 17.4 25 Noroeste 37 Noroeste 0 -- -- 68
2020-03-14 17:00:00 17.9 28 Noroeste 39 Noroeste 0 -- -- 67
2020-03-14 16:00:00 20.2 24 Norte 41 Noroeste 0 -- -- 59
2020-03-14 15:00:00 20.5 30 Norte 41 Noroeste 0 -- -- 58
2020-03-14 14:00:00 20.4 27 Noroeste 40 Norte 0 -- -- 59
2020-03-14 13:00:00 20.7 22 Noroeste 39 Norte 0 -- -- 51
2020-03-14 12:00:00 19.9 19 Norte 31 Norte 0 -- -- 49
2020-03-14 11:00:00 18.9 17 Norte 29 Norte 0 -- -- 55
2020-03-14 10:00:00 16.9 18 Norte 31 Nordeste 0 -- -- 65
2020-03-14 09:00:00 16.3 21 Norte 28 Nordeste 0 -- -- 68
2020-03-14 08:00:00 14.7 11 Norte 19 Nordeste 0 -- -- 77
2020-03-14 07:00:00 14.2 12 Norte 20 Nordeste 0 -- -- 79
2020-03-14 06:00:00 13.1 8 Norte 14 Norte 0 -- -- 85
2020-03-14 05:00:00 13.4 10 Norte 17 Nordeste 0 -- -- 83
2020-03-14 04:00:00 14.4 11 Norte 24 Norte 0 -- -- 79
2020-03-14 03:00:00 14.9 15 Nordeste 26 Nordeste 0 -- -- 80
2020-03-14 02:00:00 15 13 Nordeste 26 Norte 0 -- -- 79
2020-03-14 01:00:00 15.2 15 Norte 26 Nordeste 0 -- -- 78
2020-03-14 00:00:00 15.6 15 Nordeste 25 Norte 0 -- -- 78
2020-03-13 23:00:00 15.7 17 Nordeste 27 Nordeste 0 -- -- 77
2020-03-13 22:00:00 16 17 Nordeste 25 Nordeste 0 -- -- 75
2020-03-13 21:00:00 16 12 Norte 28 Norte 0 -- -- 79
2020-03-13 20:00:00 16.3 22 Norte 31 Norte 0 -- -- 77
2020-03-13 19:00:00 17.1 24 Norte 33 Norte 0 -- -- 73
2020-03-13 18:00:00 18.4 16 Norte 30 Nordeste 0 -- -- 70
2020-03-13 17:00:00 19.2 23 Nordeste 32 Nordeste 0 -- -- 68
2020-03-13 16:00:00 20.3 20 Nordeste 29 Nordeste 0 -- -- 64
2020-03-13 15:00:00 20 18 Nordeste 29 Nordeste 0 -- -- 64
2020-03-13 14:00:00 19.9 20 Nordeste 31 Este 0 -- -- 64
2020-03-13 13:00:00 20.3 17 Nordeste 28 Este 0 -- -- 62
2020-03-13 12:00:00 20 18 Nordeste 30 Este 0 -- -- 65
2020-03-13 11:00:00 19.3 15 Nordeste 26 Nordeste 0 -- -- 65
2020-03-13 10:00:00 17.9 17 Nordeste 23 Nordeste 0 -- -- 73
2020-03-13 09:00:00 16.7 12 Nordeste 20 Nordeste 0 -- -- 80
2020-03-13 08:00:00 14.5 6 Norte 17 Norte 0 -- -- 92
2020-03-13 07:00:00 13.7 7 Norte 14 Norte 0 -- -- 91
2020-03-13 06:00:00 14.3 6 Norte 24 Nordeste 0 -- -- 90
2020-03-13 05:00:00 14.6 16 Nordeste 26 Nordeste 0 -- -- 90
2020-03-13 04:00:00 14.8 9 Nordeste 26 Nordeste 0 -- -- 90
2020-03-13 03:00:00 15.1 13 Nordeste 30 Nordeste 0 -- -- 91
2020-03-13 02:00:00 15.5 14 Nordeste 22 Nordeste 0 -- -- 91
2020-03-13 01:00:00 15.6 6 Este 17 Nordeste 0 -- -- 91
2020-03-13 00:00:00 15 0 Calma 5 Oeste 0 -- -- 87
2020-03-12 23:00:00 15.3 3 Norte 8 Nordeste 0 -- -- 86
2020-03-12 22:00:00 16.1 0 Calma 4 Este 0 -- -- 85
2020-03-12 21:00:00 17.3 2 Sudeste 6 Este 0 -- -- 84
2020-03-12 20:00:00 18.3 5 Este 10 Este 0 -- -- 81
2020-03-12 19:00:00 20.2 7 Este 14 Nordeste 0 -- -- 72
2020-03-12 18:00:00 23.1 8 Este 16 Este 0 -- -- 60
2020-03-12 17:00:00 24.5 10 Este 24 Este 0 -- -- 51
2020-03-12 16:00:00 26 17 Este 25 Este 0 -- -- 44
2020-03-12 15:00:00 27.8 15 Este 26 Este 0 -- -- 32
2020-03-12 14:00:00 27.1 14 Este 24 Este 0 -- -- 32
2020-03-12 13:00:00 26.4 14 Sudeste 24 Este 0 -- -- 28
2020-03-12 12:00:00 25 11 Este 21 Este 0 -- -- 38
2020-03-12 11:00:00 24.3 13 Este 20 Este 0 -- -- 37
2020-03-12 10:00:00 22.7 10 Este 18 Este 0 -- -- 37
2020-03-12 09:00:00 20.9 5 Sur 12 Sur 0 -- -- 41
2020-03-12 08:00:00 18.3 4 Sur 9 Sur 0 -- -- 53
2020-03-12 07:00:00 17.3 5 Sudoeste 14 Sudeste 0 -- -- 46
2020-03-12 06:00:00 16.1 6 Oeste 11 Sudoeste 0 -- -- 64
2020-03-12 05:00:00 13.3 3 Oeste 11 Sudoeste 0 -- -- 83
2020-03-12 04:00:00 14.7 6 Sur 11 Sudoeste 0 -- -- 85
2020-03-12 03:00:00 15.3 7 Sur 9 Sur 0 -- -- 81
2020-03-12 02:00:00 16.1 5 Sur 9 Sudeste 0 -- -- 82
2020-03-12 01:00:00 17 4 Sur 12 Oeste 0 -- -- 82
2020-03-12 00:00:00 17 0 Calma 6 Sudeste 0 -- -- 88
2020-03-11 23:00:00 18.1 4 Sur 18 Este 0 -- -- 78
2020-03-11 22:00:00 20.8 8 Norte 19 Noroeste 0 -- -- 36
2020-03-11 21:00:00 17.9 4 Oeste 9 Sur 0 -- -- 68
2020-03-11 20:00:00 20 7 Sur 13 Norte 0 -- -- 67
2020-03-11 19:00:00 22.3 11 Norte 18 Norte 0 -- -- 44
2020-03-11 18:00:00 24.1 14 Norte 21 Sur 0 -- -- 41
2020-03-11 17:00:00 29.1 15 Sur 28 Sur 0 -- -- 9
2020-03-11 16:00:00 29 15 Sur 29 Sudeste 0 -- -- 11
2020-03-11 15:00:00 27.9 12 Sudeste 22 Sudeste 0 -- -- 22
2020-03-11 14:00:00 25.9 14 Sudeste 26 Sudeste 0 -- -- 36
2020-03-11 13:00:00 25.5 12 Este 24 Este 0 -- -- 35
2020-03-11 12:00:00 24.8 12 Este 22 Este 0 -- -- 39
2020-03-11 11:00:00 22.6 7 Sudeste 13 Nordeste 0 -- -- 44
2020-03-11 10:00:00 19.1 3 Sur 8 Sudeste 0 -- -- 73
2020-03-11 09:00:00 16.2 5 Sudeste 11 Sudeste 0 -- -- 89
2020-03-11 08:00:00 14.3 6 Sur 9 Sur 0 -- -- 95
2020-03-11 07:00:00 12.5 4 Sudoeste 6 Sudoeste 0 -- -- 93
2020-03-11 06:00:00 13 0 Calma 5 Sur 0 -- -- 91
2020-03-11 05:00:00 14.5 3 Sudoeste 8 Sudeste 0 -- -- 92
2020-03-11 04:00:00 14.9 5 Sudeste 11 Sudeste 0 -- -- 93
2020-03-11 03:00:00 15 4 Sur 9 Sur 0 -- -- 94
2020-03-11 02:00:00 14.9 4 Oeste 15 Este 0 -- -- 93
2020-03-11 01:00:00 14 5 Sudeste 13 Este 0 -- -- 86
2020-03-11 00:00:00 14.3 5 Nordeste 10 Nordeste 0 -- -- 90
2020-03-10 23:00:00 14.7 7 Noroeste 11 Noroeste 0 -- -- 90
2020-03-10 22:00:00 15 3 Noroeste 6 Nordeste 0 -- -- 83
2020-03-10 21:00:00 16.8 0 Calma 9 Este 0 -- -- 81
2020-03-10 20:00:00 18.2 5 Norte 12 Este 0 -- -- 75
2020-03-10 19:00:00 19.6 9 Sudeste 18 Este 0 -- -- 71
2020-03-10 18:00:00 22.9 9 Este 21 Este 0 -- -- 59
2020-03-10 17:00:00 24.2 8 Norte 19 Norte 0 -- -- 50
2020-03-10 16:00:00 24.7 10 Norte 33 Este 0 -- -- 47
2020-03-10 15:00:00 24.7 18 Este 29 Este 0 -- -- 53
2020-03-10 14:00:00 25 15 Sudeste 24 Este 0 -- -- 51
2020-03-10 13:00:00 24.3 8 Nordeste 18 Este 0 -- -- 48
2020-03-10 12:00:00 21.8 7 Nordeste 18 Sudeste 0 -- -- 63
2020-03-10 11:00:00 20.7 12 Este 19 Este 0 -- -- 67
2020-03-10 10:00:00 19.4 8 Sudeste 15 Este 0 -- -- 69
2020-03-10 09:00:00 17.2 6 Sur 10 Sudeste 0 -- -- 74
2020-03-10 08:00:00 13.4 0 Calma 4 Noroeste 0 -- -- 83
2020-03-10 07:00:00 13.5 5 Norte 21 Noroeste 0 -- -- 83
2020-03-10 06:00:00 14.7 10 Noroeste 20 Noroeste 0 -- -- 79
2020-03-10 05:00:00 14.5 13 Noroeste 22 Norte 0 -- -- 78
2020-03-10 04:00:00 14.7 14 Noroeste 20 Noroeste 0 -- -- 73
2020-03-10 03:00:00 14.1 14 Noroeste 19 Noroeste 0 -- -- 89
2020-03-10 02:00:00 14.5 8 Norte 21 Norte 0 -- -- 79
2020-03-10 01:00:00 15.5 9 Norte 24 Norte 0 -- -- 76
2020-03-10 00:00:00 16.5 14 Norte 21 Norte 0 -- -- 68
2020-03-09 23:00:00 15.6 9 Noroeste 31 Norte 0 -- -- 83
2020-03-09 22:00:00 16.4 13 Norte 28 Noroeste 0 -- -- 74
2020-03-09 21:00:00 16.8 9 Norte 18 Norte 0 -- -- 71
2020-03-09 20:00:00 16.8 9 Nordeste 19 Nordeste 0 -- -- 82
2020-03-09 19:00:00 18.9 10 Este 20 Este 0 -- -- 71
2020-03-09 18:00:00 21.1 15 Nordeste 21 Este 0 -- -- 58
2020-03-09 17:00:00 23.4 15 Este 23 Este 0 -- -- 56
2020-03-09 16:00:00 24.9 11 Este 25 Este 0 -- -- 43
2020-03-09 15:00:00 25.1 18 Este 26 Este 0 -- -- 43
2020-03-09 14:00:00 25.5 12 Este 22 Este 0 -- -- 34
2020-03-09 13:00:00 25 12 Este 22 Este 0 -- -- 35
2020-03-09 12:00:00 23.8 10 Sudeste 23 Este 0 -- -- 39
2020-03-09 11:00:00 23 15 Este 23 Este 0 -- -- 46
2020-03-09 10:00:00 21.4 4 Sudeste 18 Sur 0 -- -- 50
2020-03-09 09:00:00 19.2 5 Sudeste 11 Sur 0 -- -- 57
2020-03-09 08:00:00 18.1 6 Sur 13 Sur 0 -- -- 52
2020-03-09 07:00:00 16.9 5 Sudoeste 11 Sur 0 -- -- 56
2020-03-09 06:00:00 16.4 6 Sudoeste 16 Sudoeste 0 -- -- 61
2020-03-09 05:00:00 16.1 4 Sudoeste 18 Este 0 -- -- 67
2020-03-09 04:00:00 15.8 5 Sudeste 17 Este 0 -- -- 76
2020-03-09 03:00:00 15.5 3 Sudeste 22 Nordeste 0 -- -- 82
2020-03-09 02:00:00 15.4 6 Sudeste 17 Nordeste 0 -- -- 87
2020-03-09 01:00:00 15.6 0 Calma 8 Oeste 0 -- -- 89
2020-03-09 00:00:00 15 4 Noroeste 11 Oeste 0 -- -- 86
2020-03-08 23:00:00 15.9 5 Sur 11 Norte 0 -- -- 79
2020-03-08 22:00:00 16.6 0 Calma 6 Noroeste 0 -- -- 72
2020-03-08 21:00:00 17.8 4 Sur 14 Norte 0 -- -- 70
2020-03-08 20:00:00 19.7 11 Norte 29 Noroeste 0 -- -- 59
2020-03-08 19:00:00 21.3 17 Noroeste 25 Noroeste 0 -- -- 55
2020-03-08 18:00:00 24.6 6 Este 11 Este 0 -- -- 43
2020-03-08 17:00:00 25.5 5 Este 15 Este 0 -- -- 31
2020-03-08 16:00:00 25.1 8 Sudeste 19 Este 0 -- -- 33
2020-03-08 15:00:00 24.3 11 Este 22 Este 0 -- -- 37
2020-03-08 14:00:00 23 13 Este 28 Este 0 -- -- 49
2020-03-08 13:00:00 22.3 17 Este 28 Este 0 -- -- 56
2020-03-08 12:00:00 21.4 18 Este 29 Este 0 -- -- 64
2020-03-08 11:00:00 20.2 22 Este 37 Este 0 -- -- 70
2020-03-08 10:00:00 20.1 11 Sudeste 18 Sudeste 0 -- -- 65
2020-03-08 09:00:00 17.7 0 Calma 8 Sudeste 0 -- -- 77
2020-03-08 08:00:00 15.2 6 Norte 12 Noroeste 0 -- -- 81
2020-03-08 07:00:00 15.6 5 Norte 17 Norte 0 -- -- 80
2020-03-08 06:00:00 14.6 4 Noroeste 19 Norte 0 -- -- 85
2020-03-08 05:00:00 14.9 9 Noroeste 24 Oeste 0 -- -- 91
2020-03-08 04:00:00 15 17 Oeste 28 Oeste 0 -- -- 91
2020-03-08 03:00:00 15.2 17 Oeste 28 Oeste 0 -- -- 91
2020-03-08 02:00:00 14.8 8 Noroeste 14 Noroeste 0 -- -- 88
2020-03-08 01:00:00 15.2 6 Noroeste 28 Nordeste 0 -- -- 89
2020-03-08 00:00:00 15.3 11 Norte 24 Nordeste 0 -- -- 88
2020-03-07 23:00:00 15.9 6 Norte 17 Nordeste 0 -- -- 78
2020-03-07 22:00:00 15.6 3 Este 26 Nordeste 0 -- -- 80
2020-03-07 21:00:00 15.9 14 Nordeste 25 Nordeste 0 -- -- 85
2020-03-07 20:00:00 16.1 14 Noroeste 32 Noroeste 0 -- -- 81
2020-03-07 19:00:00 17.2 24 Norte 35 Noroeste 0 -- -- 74
2020-03-07 18:00:00 18.9 29 Norte 37 Noroeste 0 -- -- 68
2020-03-07 17:00:00 20.2 32 Norte 43 Noroeste 0 -- -- 64
2020-03-07 16:00:00 21.5 31 Noroeste 40 Noroeste 0 -- -- 60
2020-03-07 15:00:00 22.6 15 Norte 26 Norte 0 -- -- 52
2020-03-07 14:00:00 21.1 16 Norte 33 Nordeste 0 -- -- 58
2020-03-07 13:00:00 19.6 26 Nordeste 39 Nordeste 0 -- -- 64
2020-03-07 12:00:00 19.9 19 Nordeste 32 Nordeste 0 -- -- 61
2020-03-07 11:00:00 18.8 21 Norte 36 Nordeste 0 -- -- 64
2020-03-07 10:00:00 17.5 15 Norte 40 Norte 0 -- -- 68
2020-03-07 09:00:00 16.2 11 Norte 23 Noroeste 0 -- -- 75
2020-03-07 08:00:00 14.3 10 Noroeste 27 Nordeste 0 -- -- 81
2020-03-07 07:00:00 14.1 16 Norte 35 Norte 0 -- -- 80
2020-03-07 06:00:00 13.8 13 Norte 30 Norte 0 -- -- 80
2020-03-07 05:00:00 14.1 14 Norte 28 Norte 0 -- -- 79
2020-03-07 04:00:00 13.6 17 Norte 30 Norte 0 -- -- 81
2020-03-07 03:00:00 13 18 Norte 23 Noroeste 0 -- -- 80
2020-03-07 02:00:00 13.2 13 Noroeste 23 Noroeste 0 -- -- 79
2020-03-07 01:00:00 13.8 12 Norte 20 Norte 0 -- -- 75
2020-03-07 00:00:00 14.5 14 Norte 31 Norte 0 -- -- 74
2020-03-06 23:00:00 14 12 Norte 42 Norte 0 -- -- 77
2020-03-06 22:00:00 14.4 31 Norte 42 Norte 0 -- -- 76
2020-03-06 21:00:00 14.7 29 Norte 43 Norte 0 -- -- 74
2020-03-06 20:00:00 15.5 26 Norte 35 Norte 0 -- -- 69
2020-03-06 19:00:00 16.7 15 Norte 36 Norte 0 -- -- 60
2020-03-06 18:00:00 18.2 22 Norte 42 Nordeste 0 -- -- 55
2020-03-06 17:00:00 19 26 Nordeste 45 Nordeste 0 -- -- 54
2020-03-06 16:00:00 19.7 27 Nordeste 44 Nordeste 0 -- -- 58
2020-03-06 15:00:00 19.7 29 Nordeste 44 Nordeste 0 -- -- 56
2020-03-06 14:00:00 19.2 31 Nordeste 50 Nordeste 0 -- -- 59
2020-03-06 13:00:00 19.3 29 Nordeste 49 Nordeste 0 -- -- 60
2020-03-06 12:00:00 18.5 31 Nordeste 50 Nordeste 0 -- -- 57
2020-03-06 11:00:00 18 28 Norte 46 Nordeste 0 -- -- 60
2020-03-06 10:00:00 16.7 26 Nordeste 42 Nordeste 0 -- -- 65
2020-03-06 09:00:00 15.5 24 Nordeste 39 Nordeste 0 -- -- 70
2020-03-06 08:00:00 14.8 16 Norte 42 Norte 0 -- -- 76
2020-03-06 07:00:00 14.5 15 Nordeste 36 Nordeste 0 -- -- 78
2020-03-06 06:00:00 14.4 19 Norte 37 Norte 0 -- -- 91
2020-03-06 05:00:00 15.1 19 Norte 32 Nordeste 0 -- -- 92
2020-03-06 04:00:00 15.4 14 Norte 28 Norte 0 -- -- 93
2020-03-06 03:00:00 16 21 Norte 34 Norte 0 -- -- 86
2020-03-06 02:00:00 16.6 19 Norte 33 Nordeste 0 -- -- 84
2020-03-06 01:00:00 17.2 20 Nordeste 42 Nordeste 0 -- -- 74
2020-03-06 00:00:00 17.3 18 Norte 37 Norte 0 -- -- 77
2020-03-05 23:00:00 17 23 Norte 39 Norte 0 -- -- 76
2020-03-05 22:00:00 16.6 21 Norte 37 Nordeste 0 -- -- 77
2020-03-05 21:00:00 16.2 17 Nordeste 28 Nordeste 0 -- -- 77
2020-03-05 20:00:00 16.2 22 Norte 36 Norte 0 -- -- 79
2020-03-05 19:00:00 17.1 26 Norte 37 Noroeste 0 -- -- 75
2020-03-05 18:00:00 18.3 18 Nordeste 37 Nordeste 0 -- -- 74
2020-03-05 17:00:00 19.5 25 Nordeste 36 Nordeste 0 -- -- 69
2020-03-05 16:00:00 20.6 23 Nordeste 37 Nordeste 0 -- -- 65
2020-03-05 15:00:00 21.1 22 Nordeste 35 Nordeste 0 -- -- 61
2020-03-05 14:00:00 20.9 23 Nordeste 36 Nordeste 0 -- -- 63
2020-03-05 13:00:00 20.8 23 Nordeste 34 Nordeste 0 -- -- 64
2020-03-05 12:00:00 20.3 16 Norte 30 Norte 0 -- -- 62
2020-03-05 11:00:00 19.3 19 Norte 30 Norte 0 -- -- 69
2020-03-05 10:00:00 17.5 12 Nordeste 22 Nordeste 0 -- -- 79
2020-03-05 09:00:00 15.7 8 Norte 32 Noroeste 0 -- -- 89
2020-03-05 08:00:00 14.8 27 Noroeste 37 Noroeste 0 -- -- 94
2020-03-05 07:00:00 14.3 19 Noroeste 27 Noroeste 0 -- -- 95
2020-03-05 06:00:00 12.8 9 Noroeste 13 Noroeste 0 -- -- 93
2020-03-05 05:00:00 13.8 8 Norte 10 Norte 0 -- -- 95
2020-03-05 04:00:00 13.3 4 Noroeste 25 Nordeste 0 -- -- 92
2020-03-05 03:00:00 14.8 15 Nordeste 24 Nordeste 0 -- -- 94
2020-03-05 02:00:00 14.8 9 Norte 20 Norte 0 -- -- 94
2020-03-05 01:00:00 13.4 7 Noroeste 10 Noroeste 0 -- -- 94
2020-03-05 00:00:00 15 9 Norte 25 Noroeste 0 -- -- 93
2020-03-04 23:00:00 15.1 10 Norte 14 Norte 0 -- -- 90
2020-03-04 22:00:00 15.5 7 Noroeste 13 Norte 0 -- -- 87
2020-03-04 21:00:00 16.7 10 Norte 14 Nordeste 0 -- -- 85
2020-03-04 20:00:00 17.8 3 Norte 10 Este 0 -- -- 79
2020-03-04 19:00:00 19.7 10 Nordeste 18 Nordeste 0 -- -- 72
2020-03-04 18:00:00 23.1 11 Noroeste 23 Noroeste 0 -- -- 63
2020-03-04 17:00:00 23.9 13 Nordeste 21 Nordeste 0 -- -- 55
2020-03-04 16:00:00 23.6 18 Nordeste 28 Nordeste 0 -- -- 52
2020-03-04 15:00:00 24.5 16 Nordeste 26 Nordeste 0 -- -- 52
2020-03-04 14:00:00 25.1 15 Norte 23 Norte 0 -- -- 52
2020-03-04 13:00:00 25.6 12 Norte 20 Norte 0 -- -- 49
2020-03-04 12:00:00 25.3 13 Norte 22 Este 0 -- -- 44
2020-03-04 11:00:00 24.5 12 Nordeste 20 Nordeste 0 -- -- 35
2020-03-04 10:00:00 22.5 12 Nordeste 27 Nordeste 0 -- -- 42
2020-03-04 09:00:00 19.9 19 Nordeste 30 Nordeste 0 -- -- 46
2020-03-04 08:00:00 17.5 13 Noroeste 23 Noroeste 0 -- -- 57
2020-03-04 07:00:00 16.8 10 Noroeste 23 Norte 0 -- -- 58
2020-03-04 06:00:00 17.4 13 Norte 30 Norte 0 -- -- 52
2020-03-04 05:00:00 17.1 18 Nordeste 30 Norte 0 -- -- 52
2020-03-04 04:00:00 16.6 12 Norte 23 Nordeste 0 -- -- 53
2020-03-04 03:00:00 16.8 13 Norte 32 Norte 0 -- -- 59
2020-03-04 02:00:00 17.1 16 Norte 26 Norte 0 -- -- 54
2020-03-04 01:00:00 17.3 6 Este 33 Norte 0 -- -- 49
2020-03-04 00:00:00 18.3 22 Norte 36 Nordeste 0 -- -- 38
2020-03-03 23:00:00 15.9 12 Noroeste 23 Noroeste 0 -- -- 76
2020-03-03 22:00:00 15.6 20 Noroeste 30 Norte 0 -- -- 91
2020-03-03 21:00:00 17.5 19 Norte 25 Norte 0 -- -- 69
2020-03-03 20:00:00 17.8 8 Norte 18 Nordeste 0 -- -- 63
2020-03-03 19:00:00 17.7 12 Nordeste 26 Nordeste 0 -- -- 81
2020-03-03 18:00:00 19.1 21 Nordeste 30 Este 0 -- -- 76
2020-03-03 17:00:00 20.9 19 Norte 33 Norte 0 -- -- 69
2020-03-03 16:00:00 21.3 23 Norte 33 Norte 0 -- -- 68
2020-03-03 15:00:00 21.7 24 Norte 34 Noroeste 0 -- -- 66
2020-03-03 14:00:00 22.4 23 Norte 34 Norte 0 -- -- 63
2020-03-03 13:00:00 21.9 20 Norte 30 Noroeste 0 -- -- 63
2020-03-03 12:00:00 20.6 11 Nordeste 27 Nordeste 0 -- -- 65
2020-03-03 11:00:00 18.8 17 Nordeste 33 Norte 0 -- -- 74
2020-03-03 10:00:00 17 18 Nordeste 31 Nordeste 0 -- -- 82
2020-03-03 09:00:00 16.3 18 Nordeste 28 Nordeste 0 -- -- 85
2020-03-03 08:00:00 15.5 18 Norte 33 Nordeste 0 -- -- 89
2020-03-03 07:00:00 14.8 12 Norte 23 Norte 0 -- -- 94
2020-03-03 06:00:00 13.4 5 Nordeste 10 Nordeste 0 -- -- 95
2020-03-03 05:00:00 13.1 6 Norte 17 Noroeste 0 -- -- 95
2020-03-03 04:00:00 14.3 14 Noroeste 19 Noroeste 0 -- -- 95
2020-03-03 03:00:00 14.1 12 Noroeste 16 Noroeste 0 -- -- 92
2020-03-03 02:00:00 14.4 5 Noroeste 22 Norte 0 -- -- 91
2020-03-03 01:00:00 14.9 19 Noroeste 25 Noroeste 0 -- -- 92
2020-03-03 00:00:00 14.9 17 Noroeste 27 Norte 0 -- -- 92
2020-03-02 23:00:00 15.3 21 Norte 28 Norte 0 -- -- 92
2020-03-02 22:00:00 15.8 14 Norte 20 Noroeste 0 -- -- 83
2020-03-02 21:00:00 16.2 10 Nordeste 23 Norte 0 -- -- 78
2020-03-02 20:00:00 16.6 16 Norte 33 Norte 0 -- -- 84
2020-03-02 19:00:00 17.6 25 Norte 40 Norte 0 -- -- 78
2020-03-02 18:00:00 18.5 31 Norte 44 Norte 0 -- -- 74
2020-03-02 17:00:00 19.4 32 Norte 46 Norte 0 -- -- 73
2020-03-02 16:00:00 20.5 31 Noroeste 45 Noroeste 0 -- -- 68
2020-03-02 15:00:00 21.6 28 Noroeste 45 Norte 0 -- -- 63
2020-03-02 14:00:00 21.3 31 Norte 42 Noroeste 0 -- -- 64
2020-03-02 13:00:00 20.2 29 Norte 46 Noroeste 0 -- -- 69
2020-03-02 12:00:00 20.5 31 Norte 41 Norte 0 -- -- 69
2020-03-02 11:00:00 20.3 19 Norte 28 Norte 0 -- -- 64
2020-03-02 10:00:00 18.4 14 Norte 26 Norte 0 -- -- 73
2020-03-02 09:00:00 16.3 17 Norte 25 Norte 0 -- -- 91
2020-03-02 08:00:00 15.4 15 Norte 23 Noroeste 0 -- -- 94
2020-03-02 07:00:00 15.2 13 Norte 28 Norte 0 -- -- 93
2020-03-02 06:00:00 15.5 19 Norte 27 Noroeste 0 -- -- 94
2020-03-02 05:00:00 15.3 15 Noroeste 23 Norte 0 -- -- 95
2020-03-02 04:00:00 15.1 14 Norte 25 Norte 0 -- -- 94
2020-03-02 03:00:00 15.6 14 Norte 25 Norte 0 -- -- 92
2020-03-02 02:00:00 15.9 14 Norte 25 Norte 0 -- -- 91
2020-03-02 01:00:00 16.3 19 Norte 29 Norte 0 -- -- 91
2020-03-02 00:00:00 16 15 Norte 24 Norte 0 -- -- 91
2020-03-01 23:00:00 15.1 17 Noroeste 21 Norte 0 -- -- 88
2020-03-01 22:00:00 14.9 10 Noroeste 13 Noroeste 0 -- -- 85
2020-03-01 21:00:00 15.6 12 Norte 20 Norte 0 -- -- 84
2020-03-01 20:00:00 16.4 15 Norte 33 Norte 0 -- -- 84
2020-03-01 19:00:00 17.2 21 Norte 35 Noroeste 0 -- -- 78
2020-03-01 18:00:00 18.2 23 Norte 38 Noroeste 0 -- -- 76
2020-03-01 17:00:00 19.2 29 Noroeste 40 Norte 0 -- -- 73
2020-03-01 16:00:00 20.2 29 Noroeste 40 Noroeste 0 -- -- 68
2020-03-01 15:00:00 21.4 21 Noroeste 35 Norte 0 -- -- 62
2020-03-01 14:00:00 21.3 21 Norte 32 Noroeste 0 -- -- 62
2020-03-01 13:00:00 21.8 11 Noroeste 22 Nordeste 0 -- -- 57
2020-03-01 12:00:00 20.2 8 Nordeste 20 Nordeste 0 -- -- 62
2020-03-01 11:00:00 18.5 4 Este 17 Este 0 -- -- 69
2020-03-01 10:00:00 17 7 Nordeste 22 Norte 0 -- -- 76
2020-03-01 09:00:00 15.8 19 Norte 42 Noroeste 0 -- -- 83
2020-03-01 08:00:00 14.5 32 Noroeste 42 Noroeste 0 -- -- 89
2020-03-01 07:00:00 14 25 Norte 34 Noroeste 0 -- -- 91
2020-03-01 06:00:00 14.1 22 Noroeste 30 Noroeste 0 -- -- 91
2020-03-01 05:00:00 13.8 15 Norte 25 Noroeste 0 -- -- 91
2020-03-01 04:00:00 14.1 19 Noroeste 29 Noroeste 0 -- -- 90
2020-03-01 03:00:00 14 16 Norte 25 Norte 0 -- -- 90
2020-03-01 02:00:00 14.2 15 Norte 24 Noroeste 0 -- -- 90
2020-03-01 01:00:00 12.6 9 Norte 12 Norte 0 -- -- 89
2020-03-01 00:00:00 14 7 Norte 14 Norte 0 -- -- 88
2020-02-29 23:00:00 14.7 11 Norte 17 Este 0 -- -- 86
2020-02-29 22:00:00 15 8 Norte 15 Norte 0 -- -- 85
2020-02-29 21:00:00 15.3 11 Norte 22 Norte 0 -- -- 83
2020-02-29 20:00:00 15.9 15 Norte 28 Norte 0 -- -- 80
2020-02-29 19:00:00 17 15 Norte 30 Norte 0 -- -- 75
2020-02-29 18:00:00 18.9 15 Norte 36 Norte 0 -- -- 68
2020-02-29 17:00:00 19.8 17 Nordeste 28 Nordeste 0 -- -- 62
2020-02-29 16:00:00 20.8 21 Nordeste 31 Nordeste 0 -- -- 58
2020-02-29 15:00:00 21.3 20 Nordeste 30 Nordeste 0 -- -- 56
2020-02-29 14:00:00 20.8 16 Nordeste 28 Nordeste 0 -- -- 58
2020-02-29 13:00:00 19.6 18 Este 27 Nordeste 0 -- -- 63
2020-02-29 12:00:00 19 18 Nordeste 28 Este 0 -- -- 63
2020-02-29 11:00:00 18.3 17 Nordeste 26 Nordeste 0 -- -- 67
2020-02-29 10:00:00 16.7 12 Norte 19 Norte 0 -- -- 73
2020-02-29 09:00:00 15.4 7 Norte 12 Norte 0 -- -- 80
2020-02-29 08:00:00 12.3 8 Norte 12 Norte 0 -- -- 90
2020-02-29 07:00:00 11.8 7 Norte 10 Norte 0 -- -- 88
2020-02-29 06:00:00 12.5 4 Noroeste 18 Norte 0 -- -- 86
2020-02-29 05:00:00 14 16 Norte 32 Norte 0 -- -- 83
2020-02-29 04:00:00 14.6 23 Norte 33 Norte 0 -- -- 81
2020-02-29 03:00:00 15 21 Norte 38 Norte 0 -- -- 81
2020-02-29 02:00:00 14.9 18 Norte 32 Norte 0 -- -- 83
2020-02-29 01:00:00 15.1 16 Norte 33 Noroeste 0 -- -- 82
2020-02-29 00:00:00 15.3 23 Norte 41 Noroeste 0 -- -- 83